This is the latest recevied weather packets stored in our database for station/object WA6OOO. If no packets are shown the sender has not sent any weather packets the latest 10 day(s).
| Time | Temp. | Humidity | Pressure | Rain* | Wind** | Luminosity | Snow |
|---|---|---|---|---|---|---|---|
| 1787826352 | 23.33° C | 70% | 1013.5 hPa | 0 mm | - | 0 W/m² | - |
| 1787826049 | 23.89° C | 69% | 1013.4 hPa | 0 mm | - | 0 W/m² | - |
| 1787825747 | 23.89° C | 67% | 1013.1 hPa | 0 mm | - | 0 W/m² | - |
| 1787825446 | 23.89° C | 65% | 1013.3 hPa | 0 mm | - | 0 W/m² | - |
| 1787825145 | 23.89° C | 66% | 1013.4 hPa | 0 mm | - | 0 W/m² | - |
| 1787824843 | 23.89° C | 66% | 1013.5 hPa | 0 mm | - | 0 W/m² | - |
| 1787824543 | 23.89° C | 67% | 1013.4 hPa | 0 mm | - | 0 W/m² | - |
| 1787824242 | 24.44° C | 64% | 1013.2 hPa | 0 mm | - | 0 W/m² | - |
| 1787823939 | 25° C | 59% | 1013.2 hPa | 0 mm | - | 0 W/m² | - |
| 1787823634 | 23.89° C | 62% | 1013.1 hPa | 0 mm | - | 0 W/m² | - |
| 1787823328 | 22.78° C | 69% | 1013.3 hPa | 0 mm | - | 0 W/m² | - |
| 1787823027 | 22.78° C | 74% | 1013.5 hPa | 0 mm | - | 0 W/m² | - |
| 1787822715 | 22.78° C | 73% | 1013.4 hPa | 0 mm | - | 0 W/m² | - |
| 1787822410 | 22.78° C | 75% | 1013.9 hPa | 0 mm | - | 0 W/m² | - |
| 1787822105 | 22.78° C | 76% | 1013.8 hPa | 0 mm | - | 0 W/m² | - |
| 1787821803 | 23.33° C | 75% | 1013.8 hPa | 0 mm | - | 0 W/m² | - |
| 1787821499 | 23.33° C | 72% | 1013.8 hPa | 0 mm | - | 0 W/m² | - |
| 1787821194 | 23.33° C | 70% | 1013.7 hPa | 0 mm | - | 0 W/m² | - |
| 1787820893 | 23.89° C | 68% | 1013.7 hPa | 0 mm | - | 0 W/m² | - |
| 1787820588 | 23.89° C | 63% | 1013.6 hPa | 0 mm | - | 0 W/m² | - |
| 1787820284 | 23.89° C | 62% | 1013.5 hPa | 0 mm | - | 0 W/m² | - |
| 1787819979 | 23.89° C | 62% | 1013.6 hPa | 0 mm | - | 0 W/m² | - |
| 1787819675 | 23.89° C | 63% | 1013.7 hPa | 0 mm | - | 0 W/m² | - |
* Rain latest hour (hover to see other rain measurements)
** Current wind speed in m/s (hover to see current wind gust speed)